Time;durP1;ratioP1;P1;durP2;ratioP2;P2;SDS_P1;SDS_P2;PMS_P1;PMS_P2;Temp;Humidity;BMP_temperature;BMP_pressure;BME280_temperature;BME280_humidity;BME280_pressure;Samples;Min_cycle;Max_cycle;Signal;HPM_P1;HPM_P2
2023/11/13 00:01:49;;;;;;;;;;;;;;;;;;5013730;28;19964;-70
2023/11/13 00:04:16;;;;;;;;;;;;;;;;;;5012363;28;20392;-70
2023/11/13 00:06:43;;;;;;;;;;;;;;;;;;5012311;28;19965;-70
2023/11/13 00:09:10;;;;;;;;;;;;;;;;;;5012932;28;19956;-70
2023/11/13 00:11:37;;;;;;;;;;;;;;;;;;5013173;28;20396;-70
2023/11/13 00:14:04;;;;;;;;;;;;;;;;;;5032181;28;20319;-70
2023/11/13 00:16:31;;;;;;;;;;;;;;;;;;5013165;28;19929;-70
2023/11/13 00:18:58;;;;;;;;;;;;;;;;;;5012656;28;20416;-70
2023/11/13 00:21:25;;;;;;;;;;;;;;;;;;5013199;28;20016;-71
2023/11/13 00:23:52;;;;;;;;;;;;;;;;;;5012647;28;19968;-70
2023/11/13 00:26:19;;;;;;;;;;;;;;;;;;5017722;28;19925;-71
2023/11/13 00:28:46;;;;;;;;;;;;;;;;;;5019724;28;19926;-70
2023/11/13 00:31:14;;;;;;;;;;;;;;;;;;5019214;28;20467;-70
2023/11/13 00:33:41;;;;;;;;;;;;;;;;;;5019260;28;19930;-70
2023/11/13 00:36:08;;;;;;;;;;;;;;;;;;5019129;28;19926;-70
2023/11/13 00:38:35;;;;;;;;;;;;;;;;;;5019469;28;19926;-70
2023/11/13 00:41:02;;;;;;;;;;;;;;;;;;5018572;28;19980;-70
2023/11/13 00:43:29;;;;;;;;;;;;;;;;;;5019200;28;19933;-70
2023/11/13 00:45:56;;;;;;;;;;;;;;;;;;5021976;28;20770;-70
2023/11/13 00:48:23;;;;;;;;;;;;;;;;;;5039279;28;19964;-70
2023/11/13 00:50:50;;;;;;;;;;;;;;;;;;5029481;28;20012;-70
2023/11/13 00:53:17;;;;;;;;;;;;;;;;;;5019350;28;19973;-70
2023/11/13 00:55:44;;;;;;;;;;;;;;;;;;5018293;28;19971;-70
2023/11/13 00:58:11;;;;;;;;;;;;;;;;;;5017904;28;20400;-70
2023/11/13 01:00:38;;;;;;;;;;;;;;;;;;5018975;28;19973;-70
2023/11/13 01:03:05;;;;;;;;;;;;;;;;;;5007517;28;19961;-70
2023/11/13 01:05:33;;;;;;;;;;;;;;;;;;5018541;28;19932;-70
2023/11/13 01:08:00;;;;;;;;;;;;;;;;;;5018833;28;19925;-70
2023/11/13 01:10:27;;;;;;;;;;;;;;;;;;5010688;28;19980;-70
2023/11/13 01:12:54;;;;;;;;;;;;;;;;;;4999269;28;19926;-70
2023/11/13 01:15:21;;;;;;;;;;;;;;;;;;5015237;28;19925;-70
2023/11/13 01:17:48;;;;;;;;;;;;;;;;;;5018468;28;20016;-70
2023/11/13 01:20:17;;;;;;;;;;;;;;;;;;5019359;28;19925;-69
2023/11/13 01:22:45;;;;;;;;;;;;;;;;;;5018978;28;20293;-70
2023/11/13 01:25:12;;;;;;;;;;;;;;;;;;5018492;28;20496;-70
2023/11/13 01:27:39;;;;;;;;;;;;;;;;;;5018679;28;19980;-69
2023/11/13 01:30:06;;;;;;;;;;;;;;;;;;5018570;28;20024;-69
2023/11/13 01:32:33;;;;;;;;;;;;;;;;;;5018205;28;20021;-69
2023/11/13 01:35:00;;;;;;;;;;;;;;;;;;5018730;28;19926;-70
2023/11/13 01:37:27;;;;;;;;;;;;;;;;;;5023172;28;19955;-69
2023/11/13 01:39:54;;;;;;;;;;;;;;;;;;5031411;28;19997;-69
2023/11/13 01:42:21;;;;;;;;;;;;;;;;;;5014929;28;19979;-69
2023/11/13 01:44:49;;;;;;;;;;;;;;;;;;5015546;28;20451;-69
2023/11/13 01:47:16;;;;;;;;;;;;;;;;;;5015031;28;19932;-70
2023/11/13 01:49:43;;;;;;;;;;;;;;;;;;5015296;28;20016;-70
2023/11/13 01:52:10;;;;;;;;;;;;;;;;;;5015199;28;19925;-70
2023/11/13 01:54:37;;;;;;;;;;;;;;;;;;5022411;28;19960;-69
2023/11/13 01:57:04;;;;;;;;;;;;;;;;;;5003243;28;20374;-69
2023/11/13 01:59:31;;;;;;;;;;;;;;;;;;5011834;28;20040;-70
2023/11/13 02:01:58;;;;;;;;;;;;;;;;;;5015062;28;19972;-70
2023/11/13 02:04:25;;;;;;;;;;;;;;;;;;5014193;28;19925;-69
2023/11/13 02:06:52;;;;;;;;;;;;;;;;;;5014553;28;20379;-69
2023/11/13 02:09:20;;;;;;;;;;;;;;;;;;5015160;28;19972;-69
2023/11/13 02:11:47;;;;;;;;;;;;;;;;;;5014511;28;19925;-69
2023/11/13 02:14:14;;;;;;;;;;;;;;;;;;5014622;28;19926;-69
2023/11/13 02:16:41;;;;;;;;;;;;;;;;;;4997477;28;19973;-69
2023/11/13 02:19:08;;;;;;;;;;;;;;;;;;4994857;28;20385;-69
2023/11/13 02:21:35;;;;;;;;;;;;;;;;;;5011291;28;19985;-69
2023/11/13 02:24:04;;;;;;;;;;;;;;;;;;5014385;28;19987;-69
2023/11/13 02:26:31;;;;;;;;;;;;;;;;;;5014335;28;20388;-69
2023/11/13 02:28:58;;;;;;;;;;;;;;;;;;5014903;28;20364;-70
2023/11/13 02:31:25;;;;;;;;;;;;;;;;;;5014614;28;19926;-69
2023/11/13 02:33:52;;;;;;;;;;;;;;;;;;5014409;28;20371;-70
2023/11/13 02:36:19;;;;;;;;;;;;;;;;;;5014624;28;20435;-69
2023/11/13 02:38:47;;;;;;;;;;;;;;;;;;5014469;28;20040;-69
2023/11/13 02:41:14;;;;;;;;;;;;;;;;;;5013649;28;19932;-69
2023/11/13 02:43:41;;;;;;;;;;;;;;;;;;5014238;28;19925;-69
2023/11/13 02:46:08;;;;;;;;;;;;;;;;;;5014504;28;20012;-70
2023/11/13 02:48:35;;;;;;;;;;;;;;;;;;5013268;28;19931;-69
2023/11/13 02:51:02;;;;;;;;;;;;;;;;;;5011153;28;20396;-70
2023/11/13 02:53:30;;;;;;;;;;;;;;;;;;4998062;28;19926;-69
2023/11/13 02:55:57;;;;;;;;;;;;;;;;;;5012829;28;20380;-70
2023/11/13 02:58:24;;;;;;;;;;;;;;;;;;5013892;28;20352;-70
2023/11/13 03:00:51;;;;;;;;;;;;;;;;;;5013873;28;19960;-69
2023/11/13 03:03:18;;;;;;;;;;;;;;;;;;5014494;28;19925;-70
2023/11/13 03:05:44;;;;;;;;;;;;;;;;;;5013795;28;19972;-70
2023/11/13 03:08:11;;;;;;;;;;;;;;;;;;5013816;28;20427;-70
2023/11/13 03:10:39;;;;;;;;;;;;;;;;;;5013824;28;20008;-70
2023/11/13 03:13:06;;;;;;;;;;;;;;;;;;5014318;28;19926;-70
2023/11/13 03:15:33;;;;;;;;;;;;;;;;;;5013501;28;19973;-69
2023/11/13 03:18:00;;;;;;;;;;;;;;;;;;5006929;28;19929;-69
2023/11/13 03:20:27;;;;;;;;;;;;;;;;;;5011058;28;20012;-69
2023/11/13 03:22:54;;;;;;;;;;;;;;;;;;5013239;28;20016;-69
2023/11/13 03:25:21;;;;;;;;;;;;;;;;;;5013771;28;20008;-69
2023/11/13 03:27:48;;;;;;;;;;;;;;;;;;5014014;28;19933;-69
2023/11/13 03:30:15;;;;;;;;;;;;;;;;;;5012266;28;19961;-69
2023/11/13 03:32:43;;;;;;;;;;;;;;;;;;5013197;28;19980;-69
2023/11/13 03:35:11;;;;;;;;;;;;;;;;;;5013074;28;19932;-70
2023/11/13 03:37:37;;;;;;;;;;;;;;;;;;5013470;28;19973;-69
2023/11/13 03:40:06;;;;;;;;;;;;;;;;;;5012552;28;19925;-70
2023/11/13 03:42:35;;;;;;;;;;;;;;;;;;5013149;28;20295;-69
2023/11/13 03:45:02;;;;;;;;;;;;;;;;;;5013546;28;19926;-69
2023/11/13 03:47:29;;;;;;;;;;;;;;;;;;5012447;28;20363;-69
2023/11/13 03:49:56;;;;;;;;;;;;;;;;;;5013055;28;19932;-69
2023/11/13 03:52:24;;;;;;;;;;;;;;;;;;5013991;28;20384;-69
2023/11/13 03:54:51;;;;;;;;;;;;;;;;;;5031550;28;20368;-69
2023/11/13 03:57:18;;;;;;;;;;;;;;;;;;5026336;28;20354;-69
2023/11/13 03:59:45;;;;;;;;;;;;;;;;;;5012510;28;19961;-69
2023/11/13 04:02:12;;;;;;;;;;;;;;;;;;5012830;28;19977;-69
2023/11/13 04:04:39;;;;;;;;;;;;;;;;;;5012115;28;20004;-69
2023/11/13 04:07:06;;;;;;;;;;;;;;;;;;5013024;28;19932;-69
2023/11/13 04:09:35;;;;;;;;;;;;;;;;;;5012719;28;20507;-70
2023/11/13 04:12:02;;;;;;;;;;;;;;;;;;5005605;28;19964;-68
2023/11/13 04:14:29;;;;;;;;;;;;;;;;;;4996945;28;19988;-68
2023/11/13 04:16:56;;;;;;;;;;;;;;;;;;4995887;28;19956;-69
2023/11/13 04:19:23;;;;;;;;;;;;;;;;;;5012756;28;20308;-68
2023/11/13 04:21:50;;;;;;;;;;;;;;;;;;5012353;28;20016;-69
2023/11/13 04:24:17;;;;;;;;;;;;;;;;;;5012923;28;19964;-69
2023/11/13 04:26:44;;;;;;;;;;;;;;;;;;5012962;28;19957;-69
2023/11/13 04:29:11;;;;;;;;;;;;;;;;;;5012317;28;19980;-70
2023/11/13 04:31:38;;;;;;;;;;;;;;;;;;5013086;28;19949;-69
2023/11/13 04:34:06;;;;;;;;;;;;;;;;;;5012381;28;19967;-70
2023/11/13 04:36:33;;;;;;;;;;;;;;;;;;5012738;28;20020;-69
2023/11/13 04:39:00;;;;;;;;;;;;;;;;;;5011635;28;20362;-71
2023/11/13 04:41:27;;;;;;;;;;;;;;;;;;5012507;28;19972;-69
2023/11/13 04:43:54;;;;;;;;;;;;;;;;;;5013310;28;19929;-70
2023/11/13 04:46:21;;;;;;;;;;;;;;;;;;5011993;28;19956;-69
2023/11/13 04:48:48;;;;;;;;;;;;;;;;;;5012285;28;19964;-69
2023/11/13 04:51:15;;;;;;;;;;;;;;;;;;5012122;28;19930;-69
2023/11/13 04:53:42;;;;;;;;;;;;;;;;;;5012623;28;20033;-69
2023/11/13 04:56:13;;;;;;;;;;;;;;;;;;5011383;28;19948;-70
2023/11/13 04:58:40;;;;;;;;;;;;;;;;;;5012334;28;20023;-70
2023/11/13 05:01:07;;;;;;;;;;;;;;;;;;5016636;28;20431;-70
2023/11/13 05:03:34;;;;;;;;;;;;;;;;;;5018499;28;19972;-70
2023/11/13 05:06:02;;;;;;;;;;;;;;;;;;5008785;28;19925;-69
2023/11/13 05:08:30;;;;;;;;;;;;;;;;;;5012577;28;19980;-69
2023/11/13 05:10:57;;;;;;;;;;;;;;;;;;5011625;28;19960;-70
2023/11/13 05:13:24;;;;;;;;;;;;;;;;;;5015031;28;19960;-73
2023/11/13 05:15:51;;;;;;;;;;;;;;;;;;5015865;28;19980;-73
2023/11/13 05:18:19;;;;;;;;;;;;;;;;;;5017055;28;19980;-72
2023/11/13 05:20:46;;;;;;;;;;;;;;;;;;5011764;28;20016;-73
2023/11/13 05:23:13;;;;;;;;;;;;;;;;;;5015799;28;19957;-73
2023/11/13 05:25:40;;;;;;;;;;;;;;;;;;5012741;28;20354;-73
2023/11/13 05:28:07;;;;;;;;;;;;;;;;;;5015795;28;19984;-74
2023/11/13 05:30:34;;;;;;;;;;;;;;;;;;5013826;28;19932;-73
2023/11/13 05:33:02;;;;;;;;;;;;;;;;;;5014819;28;19925;-73
2023/11/13 05:35:29;;;;;;;;;;;;;;;;;;5014720;28;20383;-73
2023/11/13 05:37:56;;;;;;;;;;;;;;;;;;5014190;28;19976;-73
2023/11/13 05:40:24;;;;;;;;;;;;;;;;;;5009997;28;20053;-73
2023/11/13 05:42:51;;;;;;;;;;;;;;;;;;5014148;28;19941;-74
2023/11/13 05:45:18;;;;;;;;;;;;;;;;;;5014619;28;20044;-73
2023/11/13 05:47:45;;;;;;;;;;;;;;;;;;5005242;28;19961;-74
2023/11/13 05:50:12;;;;;;;;;;;;;;;;;;5009747;28;19968;-72
2023/11/13 05:52:39;;;;;;;;;;;;;;;;;;5013580;28;19962;-72
2023/11/13 05:55:08;;;;;;;;;;;;;;;;;;5035071;28;20453;-73
2023/11/13 05:57:35;;;;;;;;;;;;;;;;;;5034581;28;19925;-72
2023/11/13 06:00:03;;;;;;;;;;;;;;;;;;5030480;28;20019;-73
2023/11/13 06:02:30;;;;;;;;;;;;;;;;;;5014416;28;19929;-73
2023/11/13 06:04:57;;;;;;;;;;;;;;;;;;5011839;28;20397;-73
2023/11/13 06:07:24;;;;;;;;;;;;;;;;;;5009598;28;19972;-72
2023/11/13 06:09:51;;;;;;;;;;;;;;;;;;5012344;28;19973;-72
2023/11/13 06:12:19;;;;;;;;;;;;;;;;;;5006350;28;19979;-73
2023/11/13 06:14:46;;;;;;;;;;;;;;;;;;5014676;28;19933;-73
2023/11/13 06:17:13;;;;;;;;;;;;;;;;;;5014213;28;20447;-72
2023/11/13 06:19:41;;;;;;;;;;;;;;;;;;5013455;28;20046;-73
2023/11/13 06:22:09;;;;;;;;;;;;;;;;;;5012876;28;20287;-73
2023/11/13 06:24:36;;;;;;;;;;;;;;;;;;5010041;28;19933;-73
2023/11/13 06:27:03;;;;;;;;;;;;;;;;;;5012246;28;20020;-73
2023/11/13 06:29:32;;;;;;;;;;;;;;;;;;5014189;28;19971;-72
2023/11/13 06:32:01;;;;;;;;;;;;;;;;;;5013672;28;19925;-71
2023/11/13 06:34:28;;;;;;;;;;;;;;;;;;5014124;28;19926;-72
2023/11/13 06:36:55;;;;;;;;;;;;;;;;;;5012894;28;20295;-72
2023/11/13 06:39:22;;;;;;;;;;;;;;;;;;5014566;28;19968;-72
2023/11/13 06:41:50;;;;;;;;;;;;;;;;;;5012773;28;19926;-73
2023/11/13 06:44:17;;;;;;;;;;;;;;;;;;5014954;28;19925;-73
2023/11/13 06:46:44;;;;;;;;;;;;;;;;;;5008113;28;19983;-74
2023/11/13 06:49:11;;;;;;;;;;;;;;;;;;5008211;28;20020;-74
2023/11/13 06:51:38;;;;;;;;;;;;;;;;;;4995912;28;20470;-73
2023/11/13 06:54:07;;;;;;;;;;;;;;;;;;4997775;28;20494;-74
2023/11/13 06:56:34;;;;;;;;;;;;;;;;;;5004195;28;19933;-72
2023/11/13 06:59:02;;;;;;;;;;;;;;;;;;5013190;28;19937;-71
2023/11/13 07:01:29;;;;;;;;;;;;;;;;;;5005648;28;19938;-72
2023/11/13 07:03:55;;;;;;;;;;;;;;;;;;5000553;28;20005;-72
2023/11/13 07:06:24;;;;;;;;;;;;;;;;;;5000559;28;20012;-72
2023/11/13 07:08:51;;;;;;;;;;;;;;;;;;5000786;28;20376;-72
2023/11/13 07:11:22;;;;;;;;;;;;;;;;;;4999037;28;20273;-73
2023/11/13 07:13:49;;;;;;;;;;;;;;;;;;5009303;28;20017;-70
2023/11/13 07:16:16;;;;;;;;;;;;;;;;;;5010630;28;20388;-71
2023/11/13 07:18:43;;;;;;;;;;;;;;;;;;5007558;28;20391;-71
2023/11/13 07:21:10;;;;;;;;;;;;;;;;;;5011529;28;19926;-72
2023/11/13 07:23:37;;;;;;;;;;;;;;;;;;5008092;28;19925;-72
2023/11/13 07:26:04;;;;;;;;;;;;;;;;;;5003264;28;20077;-71
2023/11/13 07:28:32;;;;;;;;;;;;;;;;;;5000930;28;19983;-71
2023/11/13 07:30:59;;;;;;;;;;;;;;;;;;4997419;28;20304;-72
2023/11/13 07:33:26;;;;;;;;;;;;;;;;;;5005612;28;20290;-71
2023/11/13 07:35:53;;;;;;;;;;;;;;;;;;4997764;28;20385;-72
2023/11/13 07:38:20;;;;;;;;;;;;;;;;;;5011704;28;19937;-71
2023/11/13 07:40:47;;;;;;;;;;;;;;;;;;5009015;28;20004;-71
2023/11/13 07:43:15;;;;;;;;;;;;;;;;;;5011991;28;19980;-71
2023/11/13 07:45:42;;;;;;;;;;;;;;;;;;5010800;28;19925;-70
2023/11/13 07:48:09;;;;;;;;;;;;;;;;;;5010853;28;20033;-70
2023/11/13 07:50:37;;;;;;;;;;;;;;;;;;4996430;28;19925;-70
2023/11/13 07:53:05;;;;;;;;;;;;;;;;;;5006472;28;19926;-72
2023/11/13 07:55:34;;;;;;;;;;;;;;;;;;5000462;28;19933;-76
2023/11/13 07:58:04;;;;;;;;;;;;;;;;;;5009155;28;19987;-73
2023/11/13 08:00:31;;;;;;;;;;;;;;;;;;5008535;28;19955;-70
2023/11/13 08:02:59;;;;;;;;;;;;;;;;;;5008087;28;20025;-69
2023/11/13 08:05:26;;;;;;;;;;;;;;;;;;5003233;28;19933;-70
2023/11/13 08:07:53;;;;;;;;;;;;;;;;;;5006474;28;19926;-70
2023/11/13 08:10:20;;;;;;;;;;;;;;;;;;5005032;28;20040;-70
2023/11/13 08:12:49;;;;;;;;;;;;;;;;;;5010873;28;20370;-80
2023/11/13 08:15:16;;;;;;;;;;;;;;;;;;5010754;28;19929;-79
2023/11/13 08:17:43;;;;;;;;;;;;;;;;;;5010152;28;19926;-78
2023/11/13 08:20:13;;;;;;;;;;;;;;;;;;5012787;28;19932;-79
2023/11/13 08:22:41;;;;;;;;;;;;;;;;;;5012829;28;20303;-72
2023/11/13 08:25:11;;;;;;;;;;;;;;;;;;5013846;28;20368;-76
2023/11/13 08:27:38;;;;;;;;;;;;;;;;;;5005025;28;19926;-77
2023/11/13 08:30:07;;;;;;;;;;;;;;;;;;5010501;28;19933;-77
2023/11/13 08:32:34;;;;;;;;;;;;;;;;;;5010846;28;20281;-78
2023/11/13 08:35:01;;;;;;;;;;;;;;;;;;5012282;28;19925;-77
2023/11/13 08:37:30;;;;;;;;;;;;;;;;;;5006616;28;19988;-77
2023/11/13 08:39:57;;;;;;;;;;;;;;;;;;5007813;28;19925;-77
2023/11/13 08:42:24;;;;;;;;;;;;;;;;;;5011396;28;19972;-77
2023/11/13 08:44:52;;;;;;;;;;;;;;;;;;5010191;28;20012;-77
2023/11/13 08:47:21;;;;;;;;;;;;;;;;;;5002325;28;20033;-77
2023/11/13 08:49:48;;;;;;;;;;;;;;;;;;5014514;28;19932;-77
2023/11/13 08:52:15;;;;;;;;;;;;;;;;;;5014697;28;19933;-76
2023/11/13 08:54:42;;;;;;;;;;;;;;;;;;5013493;28;20304;-76
2023/11/13 08:57:11;;;;;;;;;;;;;;;;;;5014945;28;19925;-76
2023/11/13 08:59:38;;;;;;;;;;;;;;;;;;5022882;28;19929;-77
2023/11/13 09:02:06;;;;;;;;;;;;;;;;;;5017376;28;19975;-76
2023/11/13 09:04:34;;;;;;;;;;;;;;;;;;5012229;28;20592;-76
2023/11/13 09:07:07;;;;;;;;;;;;;;;;;;5011857;28;20415;-76
2023/11/13 09:09:34;;;;;;;;;;;;;;;;;;5014705;28;19925;-76
2023/11/13 09:12:01;;;;;;;;;;;;;;;;;;5011391;28;19964;-76
2023/11/13 09:14:29;;;;;;;;;;;;;;;;;;5012753;28;20074;-76
2023/11/13 09:16:56;;;;;;;;;;;;;;;;;;5013839;28;20004;-77
2023/11/13 09:19:28;;;;;;;;;;;;;;;;;;5012347;28;19926;-77
2023/11/13 09:21:55;;;;;;;;;;;;;;;;;;5012004;28;20291;-76
2023/11/13 09:24:22;;;;;;;;;;;;;;;;;;5013396;28;19934;-77
2023/11/13 09:26:49;;;;;;;;;;;;;;;;;;5013818;28;19937;-74
2023/11/13 09:29:16;;;;;;;;;;;;;;;;;;5013087;28;19929;-74
2023/11/13 09:31:45;;;;;;;;;;;;;;;;;;5013812;28;20568;-74
2023/11/13 09:34:15;;;;;;;;;;;;;;;;;;5023624;28;19926;-73
2023/11/13 09:36:44;;;;;;;;;;;;;;;;;;4998148;28;19949;-73
2023/11/13 09:39:11;;;;;;;;;;;;;;;;;;5013297;28;19933;-73
2023/11/13 09:41:38;;;;;;;;;;;;;;;;;;5015049;28;20016;-73
2023/11/13 09:44:06;;;;;;;;;;;;;;;;;;5011440;28;19933;-73
2023/11/13 09:46:34;;;;;;;;;;;;;;;;;;5012398;28;20097;-73
2023/11/13 09:49:01;;;;;;;;;;;;;;;;;;5011361;28;19926;-74
2023/11/13 09:51:28;;;;;;;;;;;;;;;;;;5013267;28;19979;-75
2023/11/13 09:53:55;;;;;;;;;;;;;;;;;;5014317;28;19925;-74
2023/11/13 09:56:23;;;;;;;;;;;;;;;;;;5018101;28;20024;-75
2023/11/13 09:58:50;;;;;;;;;;;;;;;;;;5013119;28;19933;-74
2023/11/13 10:01:20;;;;;;;;;;;;;;;;;;5025421;28;19925;-74
2023/11/13 10:03:47;;;;;;;;;;;;;;;;;;5012729;28;19937;-74
2023/11/13 10:06:14;;;;;;;;;;;;;;;;;;5014097;28;20017;-75
2023/11/13 10:08:41;;;;;;;;;;;;;;;;;;5014370;28;19965;-74
2023/11/13 10:11:08;;;;;;;;;;;;;;;;;;5007771;28;19926;-75
2023/11/13 10:13:35;;;;;;;;;;;;;;;;;;5005037;28;19926;-74
2023/11/13 10:16:03;;;;;;;;;;;;;;;;;;5011265;28;20021;-75
2023/11/13 10:18:32;;;;;;;;;;;;;;;;;;5007175;28;19929;-72
2023/11/13 10:20:59;;;;;;;;;;;;;;;;;;5020488;28;20057;-71
2023/11/13 10:23:26;;;;;;;;;;;;;;;;;;5013094;28;19964;-71
2023/11/13 10:25:56;;;;;;;;;;;;;;;;;;5009383;28;20404;-71
2023/11/13 10:28:23;;;;;;;;;;;;;;;;;;5006466;28;19926;-71
2023/11/13 10:30:50;;;;;;;;;;;;;;;;;;5012172;28;19926;-72
2023/11/13 10:33:17;;;;;;;;;;;;;;;;;;5013143;28;19971;-70
2023/11/13 10:35:48;;;;;;;;;;;;;;;;;;5014466;28;19976;-71
2023/11/13 10:38:15;;;;;;;;;;;;;;;;;;5012955;28;19979;-70
2023/11/13 10:40:44;;;;;;;;;;;;;;;;;;5010077;28;19925;-70
2023/11/13 10:43:11;;;;;;;;;;;;;;;;;;5013258;28;19980;-70
2023/11/13 10:45:39;;;;;;;;;;;;;;;;;;5013234;28;19933;-71
2023/11/13 10:48:06;;;;;;;;;;;;;;;;;;5007721;28;19925;-71
2023/11/13 10:50:33;;;;;;;;;;;;;;;;;;5013382;28;19975;-69
2023/11/13 10:53:00;;;;;;;;;;;;;;;;;;5012195;28;19931;-69
2023/11/13 10:55:27;;;;;;;;;;;;;;;;;;5013951;28;19925;-71
2023/11/13 10:57:54;;;;;;;;;;;;;;;;;;5014771;28;19964;-70
2023/11/13 11:00:22;;;;;;;;;;;;;;;;;;5003019;28;19956;-70
2023/11/13 11:02:49;;;;;;;;;;;;;;;;;;5004336;28;19925;-71
2023/11/13 11:05:16;;;;;;;;;;;;;;;;;;5007230;28;19960;-71
2023/11/13 11:07:43;;;;;;;;;;;;;;;;;;5001933;28;19972;-70
2023/11/13 11:10:10;;;;;;;;;;;;;;;;;;5008218;28;20021;-70
2023/11/13 11:12:37;;;;;;;;;;;;;;;;;;5003034;28;19991;-70
2023/11/13 11:15:04;;;;;;;;;;;;;;;;;;5007342;28;19932;-71
2023/11/13 11:17:33;;;;;;;;;;;;;;;;;;5012323;28;19925;-71
2023/11/13 11:20:00;;;;;;;;;;;;;;;;;;5011023;28;19965;-71
2023/11/13 11:22:27;;;;;;;;;;;;;;;;;;5011908;28;19937;-71
2023/11/13 11:24:55;;;;;;;;;;;;;;;;;;5009116;28;20339;-71
2023/11/13 11:27:22;;;;;;;;;;;;;;;;;;5011479;28;20326;-71
2023/11/13 11:29:49;;;;;;;;;;;;;;;;;;5011965;28;20004;-71
2023/11/13 11:32:17;;;;;;;;;;;;;;;;;;5012965;28;19926;-71
2023/11/13 11:34:44;;;;;;;;;;;;;;;;;;5012123;28;19988;-72
2023/11/13 11:37:12;;;;;;;;;;;;;;;;;;5013103;28;20372;-70
2023/11/13 11:39:38;;;;;;;;;;;;;;;;;;5010269;28;20387;-70
2023/11/13 11:42:05;;;;;;;;;;;;;;;;;;5011838;28;19932;-71
2023/11/13 11:44:32;;;;;;;;;;;;;;;;;;5010137;28;19976;-72
2023/11/13 11:46:59;;;;;;;;;;;;;;;;;;5012225;28;20016;-72
2023/11/13 11:49:26;;;;;;;;;;;;;;;;;;5012960;28;19948;-71
2023/11/13 11:51:53;;;;;;;;;;;;;;;;;;5004024;28;19925;-72
2023/11/13 11:54:21;;;;;;;;;;;;;;;;;;5012225;28;19958;-71
2023/11/13 11:56:48;;;;;;;;;;;;;;;;;;5011966;28;19972;-72
2023/11/13 11:59:16;;;;;;;;;;;;;;;;;;5007661;28;20447;-72
2023/11/13 12:01:44;;;;;;;;;;;;;;;;;;5010568;28;20099;-71
2023/11/13 12:04:11;;;;;;;;;;;;;;;;;;5009831;28;19933;-71
2023/11/13 12:06:39;;;;;;;;;;;;;;;;;;5012764;28;20395;-71
2023/11/13 12:09:08;;;;;;;;;;;;;;;;;;5012492;28;19926;-72
2023/11/13 12:11:35;;;;;;;;;;;;;;;;;;5013035;28;19929;-71
2023/11/13 12:14:02;;;;;;;;;;;;;;;;;;5011709;28;20012;-71
2023/11/13 12:16:29;;;;;;;;;;;;;;;;;;5011050;28;20016;-69
2023/11/13 12:18:56;;;;;;;;;;;;;;;;;;5002212;28;19925;-70
2023/11/13 12:21:23;;;;;;;;;;;;;;;;;;5009206;28;19980;-71
2023/11/13 12:23:52;;;;;;;;;;;;;;;;;;5018218;28;20016;-72
2023/11/13 12:26:19;;;;;;;;;;;;;;;;;;5011419;28;19934;-71
2023/11/13 12:28:49;;;;;;;;;;;;;;;;;;5009657;28;19964;-71
2023/11/13 12:31:16;;;;;;;;;;;;;;;;;;5009904;28;19932;-71
2023/11/13 12:33:44;;;;;;;;;;;;;;;;;;5012517;28;19926;-71
2023/11/13 12:36:11;;;;;;;;;;;;;;;;;;5012563;28;19926;-71
2023/11/13 12:38:38;;;;;;;;;;;;;;;;;;5011204;28;20024;-70
2023/11/13 12:41:05;;;;;;;;;;;;;;;;;;5011496;28;20024;-71
2023/11/13 12:43:32;;;;;;;;;;;;;;;;;;5011760;28;19926;-70
2023/11/13 12:45:59;;;;;;;;;;;;;;;;;;5010500;28;19933;-70
2023/11/13 12:48:26;;;;;;;;;;;;;;;;;;5011620;28;19932;-71
2023/11/13 12:50:53;;;;;;;;;;;;;;;;;;5010537;28;19988;-70
2023/11/13 12:53:20;;;;;;;;;;;;;;;;;;5010330;28;20398;-70
2023/11/13 12:55:49;;;;;;;;;;;;;;;;;;5010703;28;20374;-70
2023/11/13 12:58:16;;;;;;;;;;;;;;;;;;5011828;28;19932;-70
2023/11/13 13:00:44;;;;;;;;;;;;;;;;;;5010867;28;19980;-70
2023/11/13 13:03:11;;;;;;;;;;;;;;;;;;5010675;28;19925;-71
2023/11/13 13:05:39;;;;;;;;;;;;;;;;;;5011945;28;19925;-70
2023/11/13 13:08:06;;;;;;;;;;;;;;;;;;5011068;28;20343;-72
2023/11/13 13:10:33;;;;;;;;;;;;;;;;;;5011915;28;19975;-72
2023/11/13 13:13:00;;;;;;;;;;;;;;;;;;5009365;28;19959;-71
2023/11/13 13:15:27;;;;;;;;;;;;;;;;;;5009608;28;20016;-72
2023/11/13 13:17:57;;;;;;;;;;;;;;;;;;5011038;28;19925;-71
2023/11/13 13:20:29;;;;;;;;;;;;;;;;;;5011161;28;20396;-71
2023/11/13 13:22:57;;;;;;;;;;;;;;;;;;5010879;28;19925;-71
2023/11/13 13:25:24;;;;;;;;;;;;;;;;;;5010782;28;20295;-71
2023/11/13 13:27:52;;;;;;;;;;;;;;;;;;5011369;28;19926;-71
2023/11/13 13:30:21;;;;;;;;;;;;;;;;;;5010111;28;19929;-71
2023/11/13 13:32:49;;;;;;;;;;;;;;;;;;5028384;28;20028;-71
2023/11/13 13:35:19;;;;;;;;;;;;;;;;;;5017691;28;19933;-71
2023/11/13 13:37:46;;;;;;;;;;;;;;;;;;5034333;28;20438;-71
2023/11/13 13:40:13;;;;;;;;;;;;;;;;;;5013641;28;20020;-71
2023/11/13 13:42:41;;;;;;;;;;;;;;;;;;5011821;28;20020;-71
2023/11/13 13:45:09;;;;;;;;;;;;;;;;;;5013094;28;19926;-71
2023/11/13 13:47:36;;;;;;;;;;;;;;;;;;5015405;28;20375;-72
2023/11/13 13:50:07;;;;;;;;;;;;;;;;;;5014884;28;19975;-71
2023/11/13 13:52:35;;;;;;;;;;;;;;;;;;5006935;28;19926;-70
2023/11/13 13:55:09;;;;;;;;;;;;;;;;;;5007199;28;19929;-71
2023/11/13 13:57:39;;;;;;;;;;;;;;;;;;5013471;28;19980;-74
2023/11/13 14:00:10;;;;;;;;;;;;;;;;;;5013307;28;19926;-75
2023/11/13 14:02:38;;;;;;;;;;;;;;;;;;5013544;28;19956;-74
2023/11/13 14:05:06;;;;;;;;;;;;;;;;;;5013118;28;19929;-73
2023/11/13 14:07:33;;;;;;;;;;;;;;;;;;5014192;28;20384;-74
2023/11/13 14:10:00;;;;;;;;;;;;;;;;;;5008136;28;20012;-74
2023/11/13 14:12:28;;;;;;;;;;;;;;;;;;5013413;28;19932;-73
2023/11/13 14:14:55;;;;;;;;;;;;;;;;;;5011269;28;19982;-73
2023/11/13 14:17:24;;;;;;;;;;;;;;;;;;5013097;28;19925;-73
2023/11/13 14:19:51;;;;;;;;;;;;;;;;;;5014154;28;19968;-72
2023/11/13 14:22:21;;;;;;;;;;;;;;;;;;5008782;28;19926;-73
2023/11/13 14:24:48;;;;;;;;;;;;;;;;;;5011661;28;20017;-73
2023/11/13 14:27:15;;;;;;;;;;;;;;;;;;5012727;28;19948;-71
2023/11/13 14:29:43;;;;;;;;;;;;;;;;;;5010975;28;19925;-71
2023/11/13 14:32:12;;;;;;;;;;;;;;;;;;5013738;28;19929;-72
2023/11/13 14:34:39;;;;;;;;;;;;;;;;;;5013334;28;20508;-72
2023/11/13 14:37:08;;;;;;;;;;;;;;;;;;5013090;28;19926;-72
2023/11/13 14:39:35;;;;;;;;;;;;;;;;;;5023137;28;20020;-72
2023/11/13 14:42:05;;;;;;;;;;;;;;;;;;5015156;28;20307;-71
2023/11/13 14:44:32;;;;;;;;;;;;;;;;;;5007905;28;20615;-70
2023/11/13 14:46:59;;;;;;;;;;;;;;;;;;5012969;28;19925;-71
2023/11/13 14:49:26;;;;;;;;;;;;;;;;;;5004550;28;19932;-71
2023/11/13 14:51:53;;;;;;;;;;;;;;;;;;5013927;28;20441;-72
2023/11/13 14:54:20;;;;;;;;;;;;;;;;;;5013193;28;19929;-71
2023/11/13 14:56:47;;;;;;;;;;;;;;;;;;5020179;28;19991;-71
2023/11/13 14:59:15;;;;;;;;;;;;;;;;;;5017089;28;20064;-75
2023/11/13 15:01:43;;;;;;;;;;;;;;;;;;5012001;28;19972;-71
2023/11/13 15:04:10;;;;;;;;;;;;;;;;;;5012620;28;19930;-71
2023/11/13 15:06:38;;;;;;;;;;;;;;;;;;5012381;28;19925;-71
2023/11/13 15:09:06;;;;;;;;;;;;;;;;;;5007656;28;20025;-72
2023/11/13 15:11:33;;;;;;;;;;;;;;;;;;5006472;28;19979;-73
2023/11/13 15:14:00;;;;;;;;;;;;;;;;;;5013924;28;19948;-71
2023/11/13 15:16:27;;;;;;;;;;;;;;;;;;5010256;28;20402;-74
2023/11/13 15:18:54;;;;;;;;;;;;;;;;;;5010913;28;20028;-74
2023/11/13 15:21:21;;;;;;;;;;;;;;;;;;5013221;28;19925;-73
2023/11/13 15:23:49;;;;;;;;;;;;;;;;;;5012206;28;20304;-72
2023/11/13 15:26:18;;;;;;;;;;;;;;;;;;5010368;28;19969;-70
2023/11/13 15:28:46;;;;;;;;;;;;;;;;;;5011547;28;19929;-72
2023/11/13 15:31:13;;;;;;;;;;;;;;;;;;5002474;28;19940;-69
2023/11/13 15:33:40;;;;;;;;;;;;;;;;;;5000146;28;20424;-70
2023/11/13 15:36:10;;;;;;;;;;;;;;;;;;5007564;28;19964;-71
2023/11/13 15:38:37;;;;;;;;;;;;;;;;;;5009830;28;19925;-73
2023/11/13 15:41:04;;;;;;;;;;;;;;;;;;5006810;28;19979;-71
2023/11/13 15:43:31;;;;;;;;;;;;;;;;;;5000946;28;20391;-71
2023/11/13 15:45:58;;;;;;;;;;;;;;;;;;4998897;28;20420;-71
2023/11/13 15:48:26;;;;;;;;;;;;;;;;;;5003280;28;19925;-69
2023/11/13 15:50:53;;;;;;;;;;;;;;;;;;5011200;28;19980;-70
2023/11/13 15:53:20;;;;;;;;;;;;;;;;;;5002775;28;20020;-76
2023/11/13 15:55:47;;;;;;;;;;;;;;;;;;5005158;28;20012;-74
2023/11/13 15:58:13;;;;;;;;;;;;;;;;;;5007778;28;20016;-76
2023/11/13 16:00:41;;;;;;;;;;;;;;;;;;5016489;28;20032;-76
2023/11/13 16:03:10;;;;;;;;;;;;;;;;;;5006914;28;20281;-76
2023/11/13 16:05:38;;;;;;;;;;;;;;;;;;5007569;28;19933;-76
2023/11/13 16:08:05;;;;;;;;;;;;;;;;;;5003511;28;19925;-76
2023/11/13 16:10:32;;;;;;;;;;;;;;;;;;5010367;28;19926;-73
2023/11/13 16:13:01;;;;;;;;;;;;;;;;;;4998824;28;19930;-75
2023/11/13 16:15:28;;;;;;;;;;;;;;;;;;4996601;28;20035;-76
2023/11/13 16:17:55;;;;;;;;;;;;;;;;;;4997892;28;20323;-78
2023/11/13 16:20:24;;;;;;;;;;;;;;;;;;5001468;28;20013;-77
2023/11/13 16:22:52;;;;;;;;;;;;;;;;;;5001882;28;19941;-79
2023/11/13 16:25:19;;;;;;;;;;;;;;;;;;4996854;28;19976;-78
2023/11/13 16:27:46;;;;;;;;;;;;;;;;;;5000298;28;19933;-75
2023/11/13 16:30:13;;;;;;;;;;;;;;;;;;4996478;28;19930;-78
2023/11/13 16:32:40;;;;;;;;;;;;;;;;;;5003077;28;19934;-78
2023/11/13 16:35:08;;;;;;;;;;;;;;;;;;5001962;28;19925;-77
2023/11/13 16:37:37;;;;;;;;;;;;;;;;;;5005091;28;19936;-78
2023/11/13 16:40:05;;;;;;;;;;;;;;;;;;4998567;28;20474;-78
2023/11/13 16:42:32;;;;;;;;;;;;;;;;;;4999793;28;19933;-78
2023/11/13 16:44:59;;;;;;;;;;;;;;;;;;4996390;28;19988;-77
2023/11/13 16:47:27;;;;;;;;;;;;;;;;;;4996256;28;19926;-79